Suomigracht — PHBT — position and weather

sailwx.info

Track history (hours):
 
Tides and Currents Weather Stations Pressure Air Temp Water Temp Dewpoint Dewpoint Depression Visibility Wind Speed Wind Dir Waves Ship Positions

Suomigracht

Last reported at 2019-Jan-22 05:30 UTC. Time now 2019-Jan-22 05:57 UTC.
Position N 55°51' E 016°07'.

Length 173 m; beam 26 m.

Type: Cargo ship. MMSI: 246100000.

Date/timePositionNaut miles runAvg speedWind from/ knotsBaromVisibWave heightAir tempDewpointWater temp
2019-Jan-22 05:30N 55°51' E 016°07'611.9
2019-Jan-22 05:00N 55°48' E 015°58'611.9
2019-Jan-22 04:30N 55°45' E 015°48'612.1
2019-Jan-22 04:00N 55°42' E 015°39'1212.1
2019-Jan-22 03:00N 55°36' E 015°20'612.3
2019-Jan-22 02:30N 55°33' E 015°11'2812.4
2019-Jan-22 00:12N 55°17' E 014°30'212.1
2019-Jan-22 00:00N 55°15' E 014°28'612.4
2019-Jan-21 23:30N 55°10' E 014°20'712.5
2019-Jan-21 22:55N 55°04' E 014°12'512.0
2019-Jan-21 22:29N 55°01' E 014°06'8813.0
2019-Jan-21 15:42N 54°25' E 011°46'314.3
2019-Jan-21 15:30N 54°26' E 011°42'713.2
2019-Jan-21 15:01N 54°29' E 011°32'713.2
2019-Jan-21 14:31N 54°32' E 011°22'612.7
2019-Jan-21 14:01N 54°35' E 011°12'612.6
2019-Jan-21 13:31N 54°38' E 011°03'612.6
2019-Jan-21 13:01N 54°41' E 010°53'611.4
2019-Jan-21 12:31N 54°47' E 010°52'611.9
2019-Jan-21 12:01N 54°53' E 010°53'611.5
2019-Jan-21 11:31N 54°58' E 010°58'611.3
2019-Jan-21 11:01N 55°03' E 011°02'611.8
2019-Jan-21 10:28N 55°10' E 011°03'511.0
2019-Jan-21 10:00N 55°14' E 011°05'11110.8
2019-Jan-20 23:44N 57°04' E 011°40'312.3
2019-Jan-20 23:30N 57°07' E 011°38'612.4
2019-Jan-20 23:01N 57°12' E 011°34'612.6
2019-Jan-20 22:31N 57°18' E 011°31'612.8
2019-Jan-20 22:01N 57°24' E 011°26'612.4
2019-Jan-20 21:31N 57°30' E 011°21'713.1
2019-Jan-20 21:00N 57°34' E 011°12'613.0
2019-Jan-20 20:31N 57°38' E 011°02'612.9
2019-Jan-20 20:00N 57°40' E 010°51'713.0
2019-Jan-20 19:30N 57°42' E 010°39'1 1.6
2019-Jan-20 18:54N 57°42' E 010°37'0 0.0
2019-Jan-20 18:30N 57°42' E 010°37'0 0.1
2019-Jan-20 18:00N 57°42' E 010°37'0 0.1
2019-Jan-20 17:30N 57°42' E 010°37'0 0.1
2019-Jan-20 17:00N 57°42' E 010°37'0 0.1
2019-Jan-20 16:30N 57°42' E 010°37'0 0.0
2019-Jan-20 16:00N 57°42' E 010°37'0 0.0
2019-Jan-20 15:30N 57°42' E 010°37'0 0.1
2019-Jan-20 15:00N 57°42' E 010°37'0 0.0
2019-Jan-20 14:30N 57°42' E 010°37'0 0.0
2019-Jan-20 14:00N 57°42' E 010°37'0 0.0
2019-Jan-20 13:30N 57°42' E 010°37'0 0.0
2019-Jan-20 13:00N 57°42' E 010°37'0 0.0
2019-Jan-20 12:30N 57°42' E 010°37'0 0.0
2019-Jan-20 12:00N 57°42' E 010°37'0 0.0
2019-Jan-20 11:30N 57°42' E 010°37'0 0.1
2019-Jan-20 10:57N 57°42' E 010°37'0 0.1
2019-Jan-20 10:30N 57°42' E 010°37'1 1.3
2019-Jan-20 10:00N 57°42' E 010°38'5 9.5
2019-Jan-20 09:31N 57°46' E 010°45'612.9
2019-Jan-20 09:00N 57°46' E 010°32'713.2
2019-Jan-20 08:29N 57°47' E 010°19'713.1
2019-Jan-20 07:58N 57°47' E 010°07'913.0
2019-Jan-20 07:15N 57°45' E 009°50'412.1
2019-Jan-20 06:57N 57°44' E 009°43'612.3
2019-Jan-20 06:30N 57°42' E 009°33'812.3
2019-Jan-20 05:49N 57°40' E 009°18'412.1
2019-Jan-20 05:30N 57°38' E 009°12'612.4
2019-Jan-20 04:59N 57°34' E 009°03'612.6
2019-Jan-20 04:30N 57°30' E 008°54'2112.8
2019-Jan-20 02:50N 57°16' E 008°24'27813.5
2019-Jan-19 06:12N 53°12' E 004°33'313.7
2019-Jan-19 06:00N 53°09' E 004°30'713.5
2019-Jan-19 05:30N 53°04' E 004°24'713.6
2019-Jan-19 05:00N 52°58' E 004°19'713.8
2019-Jan-19 04:30N 52°51' E 004°14'1514.0
2019-Jan-19 03:24N 52°39' E 003°58'614.2
2019-Jan-19 03:00N 52°35' E 003°52'714.3
2019-Jan-19 02:30N 52°30' E 003°44'714.5
2019-Jan-19 02:00N 52°24' E 003°37'714.7
2019-Jan-19 01:30N 52°17' E 003°32'814.9
2019-Jan-19 00:59N 52°10' E 003°28'815.0
2019-Jan-19 00:27N 52°02' E 003°24'915.1
2019-Jan-18 23:53N 51°54' E 003°22'1612.2
2019-Jan-18 22:36N 51°38' E 003°21'516.3
2019-Jan-18 22:16N 51°33' E 003°25'415.5
2019-Jan-18 22:01N 51°30' E 003°28'612.3
2019-Jan-18 21:30N 51°26' E 003°37'4 8.5
2019-Jan-18 21:01N 51°28' E 003°42'0 0.2
2019-Jan-18 20:30N 51°28' E 003°42'0 0.0
2019-Jan-18 19:57N 51°28' E 003°42'0 0.0
2019-Jan-18 19:27N 51°28' E 003°42'0 0.0
2019-Jan-18 19:00N 51°28' E 003°42'0 0.0
2019-Jan-18 18:30N 51°28' E 003°42'0 0.0
2019-Jan-18 18:00N 51°28' E 003°42'0 0.0
2019-Jan-18 17:30N 51°28' E 003°42'0 0.0
2019-Jan-18 16:57N 51°28' E 003°42'0 0.0
2019-Jan-18 16:30N 51°28' E 003°42'0 0.0
2019-Jan-18 16:00N 51°28' E 003°42'0 0.0
2019-Jan-18 15:18N 51°28' E 003°42'0 0.0
2019-Jan-18 15:00N 51°28' E 003°42'0 0.0
2019-Jan-18 14:30N 51°28' E 003°42'0 0.0
2019-Jan-18 14:00N 51°28' E 003°42'0 0.0
2019-Jan-18 13:30N 51°28' E 003°42'0 0.0
2019-Jan-18 13:00N 51°28' E 003°42'0 0.0
2019-Jan-18 12:27N 51°28' E 003°42'0 0.0
2019-Jan-18 12:00N 51°28' E 003°42'0 0.0
2019-Jan-18 11:18N 51°28' E 003°42'0 0.0
2019-Jan-18 11:00N 51°28' E 003°42'0 0.0
2019-Jan-18 10:30N 51°28' E 003°42'0 0.0
2019-Jan-18 10:00N 51°28' E 003°42'0 0.0
2019-Jan-18 09:30N 51°28' E 003°42'0 0.0
2019-Jan-18 08:54N 51°28' E 003°42'0 0.0
2019-Jan-18 08:30N 51°28' E 003°42'0 0.0
2019-Jan-18 08:00N 51°28' E 003°42'1 2.0
2019-Jan-18 07:30N 51°27' E 003°41'1 2.0
2019-Jan-18 06:59N 51°27' E 003°42'0 0.0
2019-Jan-18 06:26N 51°27' E 003°42'0 0.0
2019-Jan-18 05:53N 51°27' E 003°42'0 0.0
2019-Jan-18 05:29N 51°27' E 003°42'0 0.0
2019-Jan-18 04:59N 51°27' E 003°42'0 0.0
2019-Jan-18 04:29N 51°27' E 003°42'0 0.0
2019-Jan-18 03:59N 51°27' E 003°42'0 0.0
2019-Jan-18 03:29N 51°27' E 003°42'0 0.0
2019-Jan-18 02:59N 51°27' E 003°42'0 0.0
2019-Jan-18 02:29N 51°27' E 003°42'0 0.0
2019-Jan-18 01:53N 51°27' E 003°42'0 0.0
2019-Jan-18 01:29N 51°27' E 003°42'0 0.0
2019-Jan-18 00:59N 51°27' E 003°42'0 0.0
2019-Jan-18 00:29N 51°27' E 003°42'0 0.0
2019-Jan-17 23:59N 51°27' E 003°42'0 0.0
2019-Jan-17 23:29N 51°27' E 003°42'0 0.0
2019-Jan-17 22:56N 51°27' E 003°42'0 0.0
2019-Jan-17 22:29N 51°27' E 003°42'0 0.0
2019-Jan-17 21:59N 51°27' E 003°42'0 0.0
2019-Jan-17 21:29N 51°27' E 003°42'0 0.0
2019-Jan-17 20:59N 51°27' E 003°42'0 0.0
2019-Jan-17 20:29N 51°27' E 003°42'0 0.0
2019-Jan-17 19:59N 51°27' E 003°42'0 0.0
2019-Jan-17 19:29N 51°27' E 003°42'0 0.0
2019-Jan-17 18:59N 51°27' E 003°42'0 0.0
2019-Jan-17 18:26N 51°27' E 003°42'0 0.0
2019-Jan-17 17:59N 51°27' E 003°42'0 0.0
2019-Jan-17 17:29N 51°27' E 003°42'0 0.0
2019-Jan-17 16:56N 51°27' E 003°42'0 0.0
2019-Jan-17 16:29N 51°27' E 003°42'0 0.0
2019-Jan-17 15:59N 51°27' E 003°42'0 0.0
2019-Jan-17 15:29N 51°27' E 003°42'0 0.0
2019-Jan-17 14:59N 51°27' E 003°42'0 0.0
2019-Jan-17 14:29N 51°27' E 003°42'0 0.0
2019-Jan-17 13:59N 51°27' E 003°42'0 0.0
2019-Jan-17 13:29N 51°27' E 003°42'0 0.0
2019-Jan-17 12:56N 51°27' E 003°42'0 0.0
2019-Jan-17 12:29N 51°27' E 003°42'0 0.0
2019-Jan-17 11:59N 51°27' E 003°42'0 0.0
2019-Jan-17 11:29N 51°27' E 003°42'0 0.0
2019-Jan-17 10:59N 51°27' E 003°42'0 0.0
2019-Jan-17 10:29N 51°27' E 003°42'0 0.0
2019-Jan-17 09:59N 51°27' E 003°42'0 0.0
2019-Jan-17 09:29N 51°27' E 003°42'0 0.0
2019-Jan-17 08:59N 51°27' E 003°42'0 0.0
2019-Jan-17 08:29N 51°27' E 003°42'0 0.0
2019-Jan-17 07:59N 51°27' E 003°42'0 0.0
2019-Jan-17 07:26N 51°27' E 003°42'0 0.0
2019-Jan-17 06:59N 51°27' E 003°42'0 0.0
2019-Jan-17 06:29N 51°27' E 003°42'0 0.0
2019-Jan-17 05:59N 51°27' E 003°42'0 0.0
2019-Jan-17 05:29N 51°27' E 003°42'0 0.0
2019-Jan-17 04:59N 51°27' E 003°42'0 0.0
2019-Jan-17 04:29N 51°27' E 003°42'0 0.0
2019-Jan-17 03:59N 51°27' E 003°42'0 0.0
2019-Jan-17 03:29N 51°27' E 003°42'0 0.0
2019-Jan-17 02:26N 51°27' E 003°42'0 0.0
2019-Jan-17 01:56N 51°27' E 003°42'0 0.0
2019-Jan-17 01:29N 51°27' E 003°42'0 0.0
2019-Jan-17 00:59N 51°27' E 003°42'0 0.0
2019-Jan-17 00:29N 51°27' E 003°42'0 0.0
2019-Jan-16 23:59N 51°27' E 003°42'0 0.0
2019-Jan-16 23:28N 51°27' E 003°42'0 0.0
2019-Jan-16 22:55N 51°27' E 003°42'0 0.0
2019-Jan-16 22:28N 51°27' E 003°42'0 0.0
2019-Jan-16 21:58N 51°27' E 003°42'0 0.0
2019-Jan-16 21:28N 51°27' E 003°42'0 0.0
2019-Jan-16 20:58N 51°27' E 003°42'0 0.0
2019-Jan-16 20:25N 51°27' E 003°42'0 0.0
2019-Jan-16 19:58N 51°27' E 003°42'0 0.0
2019-Jan-16 19:28N 51°27' E 003°42'0 0.0
2019-Jan-16 18:58N 51°27' E 003°42'0 0.0
2019-Jan-16 18:28N 51°27' E 003°42'0 0.0
2019-Jan-16 17:58N 51°27' E 003°42'0 0.0
2019-Jan-16 17:28N 51°27' E 003°42'0 0.0
2019-Jan-16 16:52N 51°27' E 003°42'0 0.0
2019-Jan-16 16:28N 51°27' E 003°42'0 0.0
2019-Jan-16 15:58N 51°27' E 003°42'0 0.0
2019-Jan-16 15:28N 51°27' E 003°42'0 0.0
2019-Jan-16 14:58N 51°27' E 003°42'0 0.0
2019-Jan-16 14:28N 51°27' E 003°42'0 0.0
2019-Jan-16 13:58N 51°27' E 003°42'0 0.0
2019-Jan-16 13:28N 51°27' E 003°42'0 0.0
2019-Jan-16 12:58N 51°27' E 003°42'0 0.0
2019-Jan-16 12:28N 51°27' E 003°42'0 0.0
2019-Jan-16 11:55N 51°27' E 003°42'0 0.0
2019-Jan-16 11:28N 51°27' E 003°42'0 0.0
2019-Jan-16 10:58N 51°27' E 003°42'0 0.0
2019-Jan-16 10:28N 51°27' E 003°42'0 0.0
2019-Jan-16 09:58N 51°27' E 003°42'0 0.0
2019-Jan-16 09:28N 51°27' E 003°42'0 0.0
2019-Jan-16 08:58N 51°27' E 003°42'0 0.0
2019-Jan-16 08:28N 51°27' E 003°42'0 0.0
2019-Jan-16 07:55N 51°27' E 003°42'0 0.0
2019-Jan-16 07:25N 51°27' E 003°42'0 0.0
2019-Jan-16 06:58N 51°27' E 003°42'0 0.0
2019-Jan-16 06:28N 51°27' E 003°42'0 0.0
2019-Jan-16 05:58N 51°27' E 003°42'0 0.0
2019-Jan-16 05:28N 51°27' E 003°42'0 0.0
2019-Jan-16 04:58N 51°27' E 003°42'0 0.0
2019-Jan-16 04:28N 51°27' E 003°42'0 0.0
2019-Jan-16 03:58N 51°27' E 003°42'0 0.0
2019-Jan-16 03:28N 51°27' E 003°42'0 0.0
2019-Jan-16 02:58N 51°27' E 003°42'0 0.0
2019-Jan-16 02:28N 51°27' E 003°42'0 0.0
2019-Jan-16 01:55N 51°27' E 003°42'0 0.0
2019-Jan-16 01:28N 51°27' E 003°42'0 0.0
2019-Jan-16 00:58N 51°27' E 003°42'0 0.0
2019-Jan-16 00:25N 51°27' E 003°42'0 0.0
2019-Jan-15 23:55N 51°27' E 003°42'0 0.0
2019-Jan-15 23:28N 51°27' E 003°42'0 0.0
2019-Jan-15 22:58N 51°27' E 003°42'0 0.0
2019-Jan-15 22:22N 51°27' E 003°42'0 0.0
2019-Jan-15 21:58N 51°27' E 003°42'0 0.0
2019-Jan-15 21:28N 51°27' E 003°42'0 0.0
2019-Jan-15 20:58N 51°27' E 003°42'0 0.0
2019-Jan-15 20:28N 51°27' E 003°42'0 0.0
2019-Jan-15 19:58N 51°27' E 003°42'0 0.0
2019-Jan-15 19:28N 51°27' E 003°42'0 0.0
2019-Jan-15 18:58N 51°27' E 003°42'0 0.0
2019-Jan-15 18:28N 51°27' E 003°42'0 0.0
2019-Jan-15 17:58N 51°27' E 003°42'0 0.0
2019-Jan-15 17:28N 51°27' E 003°42'0 0.0
2019-Jan-15 16:58N 51°27' E 003°42'0 0.0
2019-Jan-15 16:28N 51°27' E 003°42'0 0.0
2019-Jan-15 15:58N 51°27' E 003°42'0 0.0
2019-Jan-15 15:28N 51°27' E 003°42'0 0.0
2019-Jan-15 14:58N 51°27' E 003°42'0 0.0
2019-Jan-15 14:28N 51°27' E 003°42'0 0.0
2019-Jan-15 13:58N 51°27' E 003°42'0 0.0
2019-Jan-15 13:28N 51°27' E 003°42'0 0.0
2019-Jan-15 12:58N 51°27' E 003°42'0 0.0
2019-Jan-15 12:28N 51°27' E 003°42'0 0.0
2019-Jan-15 12:01N 51°27' E 003°42'0 0.0
2019-Jan-15 11:31N 51°27' E 003°42'0 0.0
2019-Jan-15 11:01N 51°27' E 003°42'0 0.0
2019-Jan-15 10:27N 51°27' E 003°42'0 0.8
2019-Jan-15 10:01N 51°27' E 003°42'1 2.8
2019-Jan-15 09:30N 51°27' E 003°40'5 9.6
2019-Jan-15 09:00N 51°25' E 003°33'510.5
2019-Jan-15 08:30N 51°25' E 003°25'611.5
2019-Jan-15 07:57N 51°25' E 003°14'1013.0
2019-Jan-15 07:11N 51°23' E 002°58'213.0
2019-Jan-15 07:00N 51°22' E 002°55'714.5
2019-Jan-15 06:30N 51°22' E 002°43'510.5
2019-Jan-15 06:00N 51°22' E 002°35'3 4.0
2019-Jan-15 05:12N 51°25' E 002°37'0 0.2
2019-Jan-15 05:00N 51°25' E 002°37'0 0.1
2019-Jan-15 02:45N 51°25' E 002°37'0 0.0
2019-Jan-14 23:18N 51°25' E 002°37'0 0.1
2019-Jan-14 21:27N 51°25' E 002°37'0 0.1
2019-Jan-14 21:00N 51°25' E 002°37'0 0.0
2019-Jan-14 20:15N 51°25' E 002°37'0 0.0
2019-Jan-14 19:39N 51°25' E 002°38'1 3.1
2019-Jan-14 19:13N 51°24' E 002°36'2 6.5
2019-Jan-14 18:58N 51°23' E 002°34'612.7
2019-Jan-14 18:30N 51°21' E 002°25'816.3
2019-Jan-14 18:00N 51°16' E 002°15'816.1
2019-Jan-14 17:30N 51°13' E 002°03'816.1
2019-Jan-14 17:00N 51°09' E 001°52'816.0
2019-Jan-14 16:30N 51°04' E 001°42'816.1
2019-Jan-14 16:00N 50°58' E 001°33'815.1
2019-Jan-14 15:30N 50°52' E 001°26'6814.5
2019-Jan-14 10:48N 50°18' W 000°06'4614.3
2019-Jan-14 07:36N 50°07' W 001°16'113.3
2019-Jan-14 07:30N 50°07' W 001°18'613.1
2019-Jan-14 07:01N 50°06' W 001°28'612.8
2019-Jan-14 06:30N 50°04' W 001°38'612.8
2019-Jan-14 06:00N 50°03' W 001°47'613.0
2019-Jan-14 05:31N 50°01' W 001°57'713.1
2019-Jan-14 05:00N 49°59' W 002°07'2014.2
2019-Jan-14 03:37N 49°54' W 002°36'414.7
2019-Jan-14 03:21N 49°53' W 002°42'514.5
2019-Jan-14 03:00N 49°51' W 002°50'1714.8
2019-Jan-14 01:53N 49°42' W 003°12'614.8
2019-Jan-14 01:30N 49°40' W 003°19'915.1
2019-Jan-14 00:55N 49°35' W 003°31'1415.0
2019-Jan-13 23:57N 49°28' W 003°50'9912.0
2019-Jan-13 15:42N 48°11' W 005°25'313.3
2019-Jan-13 15:30N 48°08' W 005°24'1613.2
2019-Jan-13 14:15N 47°54' W 005°12'413.3
2019-Jan-13 13:58N 47°52' W 005°07'613.4
2019-Jan-13 13:29N 47°49' W 004°58'713.4
2019-Jan-13 12:57N 47°47' W 004°48'613.8
2019-Jan-13 12:29N 47°44' W 004°40'2413.8
2019-Jan-13 10:44N 47°35' W 004°06'413.9
2019-Jan-13 10:29N 47°35' W 004°01'714.1
2019-Jan-13 10:00N 47°37' W 003°51'714.5
2019-Jan-13 09:30N 47°39' W 003°41'714.2
2019-Jan-13 09:00N 47°40' W 003°31'510.7
2019-Jan-13 08:30N 47°42' W 003°23'3 5.7
2019-Jan-13 08:00N 47°44' W 003°21'0 0.0
2019-Jan-13 07:30N 47°44' W 003°21'0 0.0
2019-Jan-13 07:00N 47°44' W 003°21'0 0.0
2019-Jan-13 06:30N 47°44' W 003°21'0 0.0
2019-Jan-13 06:00N 47°44' W 003°21'0 0.0
2019-Jan-13 05:30N 47°44' W 003°21'0 0.0
2019-Jan-13 05:00N 47°44' W 003°21'0 0.0
2019-Jan-13 04:30N 47°44' W 003°21'0 0.0
2019-Jan-13 04:00N 47°44' W 003°21'0 0.0
2019-Jan-13 03:30N 47°44' W 003°21'0 0.0
2019-Jan-13 03:00N 47°44' W 003°21'0 0.0
2019-Jan-13 02:30N 47°44' W 003°21'0 0.0
2019-Jan-13 02:00N 47°44' W 003°21'0 0.0
2019-Jan-13 01:30N 47°44' W 003°21'0 0.0
2019-Jan-13 01:00N 47°44' W 003°21'0 0.0
2019-Jan-13 00:30N 47°44' W 003°21'0 0.0
2019-Jan-13 00:00N 47°44' W 003°21'0 0.0
2019-Jan-12 23:30N 47°44' W 003°21'0 0.0
2019-Jan-12 23:00N 47°44' W 003°21'0 0.0
2019-Jan-12 22:30N 47°44' W 003°21'0 0.0
2019-Jan-12 22:00N 47°44' W 003°21'0 0.0
2019-Jan-12 21:30N 47°44' W 003°21'0 0.0
2019-Jan-12 21:00N 47°44' W 003°21'0 0.0
2019-Jan-12 20:30N 47°44' W 003°21'0 0.0
2019-Jan-12 20:00N 47°44' W 003°21'0 0.0
2019-Jan-12 19:30N 47°44' W 003°21'0 0.0
2019-Jan-12 19:00N 47°44' W 003°21'0 0.0
2019-Jan-12 18:30N 47°44' W 003°21'0 0.0
2019-Jan-12 18:00N 47°44' W 003°21'0 0.0
2019-Jan-12 17:30N 47°44' W 003°21'0 0.0
2019-Jan-12 17:00N 47°44' W 003°21'0 0.0
2019-Jan-12 16:30N 47°44' W 003°21'0 0.0
2019-Jan-12 16:00N 47°44' W 003°21'0 0.0
2019-Jan-12 15:30N 47°44' W 003°21'0 0.0
2019-Jan-12 15:00N 47°44' W 003°21'0 0.0
2019-Jan-12 14:30N 47°44' W 003°21'0 0.0
2019-Jan-12 14:00N 47°44' W 003°21'0 0.0
2019-Jan-12 13:30N 47°44' W 003°21'0 0.0
2019-Jan-12 13:00N 47°44' W 003°21'0 0.0
2019-Jan-12 12:30N 47°44' W 003°21'0 0.0
2019-Jan-12 12:00N 47°44' W 003°21'0 0.0
2019-Jan-12 11:30N 47°44' W 003°21'0 0.0
2019-Jan-12 11:00N 47°44' W 003°21'0 0.0
2019-Jan-12 10:30N 47°44' W 003°21'0 0.0
2019-Jan-12 10:00N 47°44' W 003°21'0 0.0
2019-Jan-12 09:30N 47°44' W 003°21'0 0.0
2019-Jan-12 09:00N 47°44' W 003°21'0 0.0
2019-Jan-12 08:30N 47°44' W 003°21'0 0.0
2019-Jan-12 08:00N 47°44' W 003°21'0 0.0
2019-Jan-12 07:30N 47°44' W 003°21'0 0.0
2019-Jan-12 07:00N 47°44' W 003°21'0 0.0
2019-Jan-12 06:30N 47°44' W 003°21'0 0.1
2019-Jan-12 06:00N 47°44' W 003°21'1 1.7
2019-Jan-12 05:30N 47°43' W 003°22'  
Track history (hours):
 
Tides and Currents Weather Stations Pressure Air Temp Water Temp Dewpoint Dewpoint Depression Visibility Wind Speed Wind Dir Waves Ship Positions

Suomigracht

Last reported at 2019-Jan-22 05:30 UTC. Time now 2019-Jan-22 05:57 UTC.
Position N 55°51' E 016°07'.

Length 173 m; beam 26 m.

Type: Cargo ship. MMSI: 246100000.

Date/timePositionNaut miles runAvg speedWind from/ knotsBaromVisibWave heightAir tempDewpointWater temp
2019-Jan-22 05:30N 55°51' E 016°07'611.9
2019-Jan-22 05:00N 55°48' E 015°58'611.9
2019-Jan-22 04:30N 55°45' E 015°48'612.1
2019-Jan-22 04:00N 55°42' E 015°39'1212.1
2019-Jan-22 03:00N 55°36' E 015°20'612.3
2019-Jan-22 02:30N 55°33' E 015°11'2812.4
2019-Jan-22 00:12N 55°17' E 014°30'212.1
2019-Jan-22 00:00N 55°15' E 014°28'612.4
2019-Jan-21 23:30N 55°10' E 014°20'712.5
2019-Jan-21 22:55N 55°04' E 014°12'512.0
2019-Jan-21 22:29N 55°01' E 014°06'8813.0
2019-Jan-21 15:42N 54°25' E 011°46'314.3
2019-Jan-21 15:30N 54°26' E 011°42'713.2
2019-Jan-21 15:01N 54°29' E 011°32'713.2
2019-Jan-21 14:31N 54°32' E 011°22'612.7
2019-Jan-21 14:01N 54°35' E 011°12'612.6
2019-Jan-21 13:31N 54°38' E 011°03'612.6
2019-Jan-21 13:01N 54°41' E 010°53'611.4
2019-Jan-21 12:31N 54°47' E 010°52'611.9
2019-Jan-21 12:01N 54°53' E 010°53'611.5
2019-Jan-21 11:31N 54°58' E 010°58'611.3
2019-Jan-21 11:01N 55°03' E 011°02'611.8
2019-Jan-21 10:28N 55°10' E 011°03'511.0
2019-Jan-21 10:00N 55°14' E 011°05'11110.8
2019-Jan-20 23:44N 57°04' E 011°40'312.3
2019-Jan-20 23:30N 57°07' E 011°38'612.4
2019-Jan-20 23:01N 57°12' E 011°34'612.6
2019-Jan-20 22:31N 57°18' E 011°31'612.8
2019-Jan-20 22:01N 57°24' E 011°26'612.4
2019-Jan-20 21:31N 57°30' E 011°21'713.1
2019-Jan-20 21:00N 57°34' E 011°12'613.0
2019-Jan-20 20:31N 57°38' E 011°02'612.9
2019-Jan-20 20:00N 57°40' E 010°51'713.0
2019-Jan-20 19:30N 57°42' E 010°39'1 1.6
2019-Jan-20 18:54N 57°42' E 010°37'0 0.0
2019-Jan-20 18:30N 57°42' E 010°37'0 0.1
2019-Jan-20 18:00N 57°42' E 010°37'0 0.1
2019-Jan-20 17:30N 57°42' E 010°37'0 0.1
2019-Jan-20 17:00N 57°42' E 010°37'0 0.1
2019-Jan-20 16:30N 57°42' E 010°37'0 0.0
2019-Jan-20 16:00N 57°42' E 010°37'0 0.0
2019-Jan-20 15:30N 57°42' E 010°37'0 0.1
2019-Jan-20 15:00N 57°42' E 010°37'0 0.0
2019-Jan-20 14:30N 57°42' E 010°37'0 0.0
2019-Jan-20 14:00N 57°42' E 010°37'0 0.0
2019-Jan-20 13:30N 57°42' E 010°37'0 0.0
2019-Jan-20 13:00N 57°42' E 010°37'0 0.0
2019-Jan-20 12:30N 57°42' E 010°37'0 0.0
2019-Jan-20 12:00N 57°42' E 010°37'0 0.0
2019-Jan-20 11:30N 57°42' E 010°37'0 0.1
2019-Jan-20 10:57N 57°42' E 010°37'0 0.1
2019-Jan-20 10:30N 57°42' E 010°37'1 1.3
2019-Jan-20 10:00N 57°42' E 010°38'5 9.5
2019-Jan-20 09:31N 57°46' E 010°45'612.9
2019-Jan-20 09:00N 57°46' E 010°32'713.2
2019-Jan-20 08:29N 57°47' E 010°19'713.1
2019-Jan-20 07:58N 57°47' E 010°07'913.0
2019-Jan-20 07:15N 57°45' E 009°50'412.1
2019-Jan-20 06:57N 57°44' E 009°43'612.3
2019-Jan-20 06:30N 57°42' E 009°33'812.3
2019-Jan-20 05:49N 57°40' E 009°18'412.1
2019-Jan-20 05:30N 57°38' E 009°12'612.4
2019-Jan-20 04:59N 57°34' E 009°03'612.6
2019-Jan-20 04:30N 57°30' E 008°54'2112.8
2019-Jan-20 02:50N 57°16' E 008°24'27813.5
2019-Jan-19 06:12N 53°12' E 004°33'313.7
2019-Jan-19 06:00N 53°09' E 004°30'713.5
2019-Jan-19 05:30N 53°04' E 004°24'713.6
2019-Jan-19 05:00N 52°58' E 004°19'713.8
2019-Jan-19 04:30N 52°51' E 004°14'1514.0
2019-Jan-19 03:24N 52°39' E 003°58'614.2
2019-Jan-19 03:00N 52°35' E 003°52'714.3
2019-Jan-19 02:30N 52°30' E 003°44'714.5
2019-Jan-19 02:00N 52°24' E 003°37'714.7
2019-Jan-19 01:30N 52°17' E 003°32'814.9
2019-Jan-19 00:59N 52°10' E 003°28'815.0
2019-Jan-19 00:27N 52°02' E 003°24'915.1
2019-Jan-18 23:53N 51°54' E 003°22'1612.2
2019-Jan-18 22:36N 51°38' E 003°21'516.3
2019-Jan-18 22:16N 51°33' E 003°25'415.5
2019-Jan-18 22:01N 51°30' E 003°28'612.3
2019-Jan-18 21:30N 51°26' E 003°37'4 8.5
2019-Jan-18 21:01N 51°28' E 003°42'0 0.2
2019-Jan-18 20:30N 51°28' E 003°42'0 0.0
2019-Jan-18 19:57N 51°28' E 003°42'0 0.0
2019-Jan-18 19:27N 51°28' E 003°42'0 0.0
2019-Jan-18 19:00N 51°28' E 003°42'0 0.0
2019-Jan-18 18:30N 51°28' E 003°42'0 0.0
2019-Jan-18 18:00N 51°28' E 003°42'0 0.0
2019-Jan-18 17:30N 51°28' E 003°42'0 0.0
2019-Jan-18 16:57N 51°28' E 003°42'0 0.0
2019-Jan-18 16:30N 51°28' E 003°42'0 0.0
2019-Jan-18 16:00N 51°28' E 003°42'0 0.0
2019-Jan-18 15:18N 51°28' E 003°42'0 0.0
2019-Jan-18 15:00N 51°28' E 003°42'0 0.0
2019-Jan-18 14:30N 51°28' E 003°42'0 0.0
2019-Jan-18 14:00N 51°28' E 003°42'0 0.0
2019-Jan-18 13:30N 51°28' E 003°42'0 0.0
2019-Jan-18 13:00N 51°28' E 003°42'0 0.0
2019-Jan-18 12:27N 51°28' E 003°42'0 0.0
2019-Jan-18 12:00N 51°28' E 003°42'0 0.0
2019-Jan-18 11:18N 51°28' E 003°42'0 0.0
2019-Jan-18 11:00N 51°28' E 003°42'0 0.0
2019-Jan-18 10:30N 51°28' E 003°42'0 0.0
2019-Jan-18 10:00N 51°28' E 003°42'0 0.0
2019-Jan-18 09:30N 51°28' E 003°42'0 0.0
2019-Jan-18 08:54N 51°28' E 003°42'0 0.0
2019-Jan-18 08:30N 51°28' E 003°42'0 0.0
2019-Jan-18 08:00N 51°28' E 003°42'1 2.0
2019-Jan-18 07:30N 51°27' E 003°41'1 2.0
2019-Jan-18 06:59N 51°27' E 003°42'0 0.0
2019-Jan-18 06:26N 51°27' E 003°42'0 0.0
2019-Jan-18 05:53N 51°27' E 003°42'0 0.0
2019-Jan-18 05:29N 51°27' E 003°42'0 0.0
2019-Jan-18 04:59N 51°27' E 003°42'0 0.0
2019-Jan-18 04:29N 51°27' E 003°42'0 0.0
2019-Jan-18 03:59N 51°27' E 003°42'0 0.0
2019-Jan-18 03:29N 51°27' E 003°42'0 0.0
2019-Jan-18 02:59N 51°27' E 003°42'0 0.0
2019-Jan-18 02:29N 51°27' E 003°42'0 0.0
2019-Jan-18 01:53N 51°27' E 003°42'0 0.0
2019-Jan-18 01:29N 51°27' E 003°42'0 0.0
2019-Jan-18 00:59N 51°27' E 003°42'0 0.0
2019-Jan-18 00:29N 51°27' E 003°42'0 0.0
2019-Jan-17 23:59N 51°27' E 003°42'0 0.0
2019-Jan-17 23:29N 51°27' E 003°42'0 0.0
2019-Jan-17 22:56N 51°27' E 003°42'0 0.0
2019-Jan-17 22:29N 51°27' E 003°42'0 0.0
2019-Jan-17 21:59N 51°27' E 003°42'0 0.0
2019-Jan-17 21:29N 51°27' E 003°42'0 0.0
2019-Jan-17 20:59N 51°27' E 003°42'0 0.0
2019-Jan-17 20:29N 51°27' E 003°42'0 0.0
2019-Jan-17 19:59N 51°27' E 003°42'0 0.0
2019-Jan-17 19:29N 51°27' E 003°42'0 0.0
2019-Jan-17 18:59N 51°27' E 003°42'0 0.0
2019-Jan-17 18:26N 51°27' E 003°42'0 0.0
2019-Jan-17 17:59N 51°27' E 003°42'0 0.0
2019-Jan-17 17:29N 51°27' E 003°42'0 0.0
2019-Jan-17 16:56N 51°27' E 003°42'0 0.0
2019-Jan-17 16:29N 51°27' E 003°42'0 0.0
2019-Jan-17 15:59N 51°27' E 003°42'0 0.0
2019-Jan-17 15:29N 51°27' E 003°42'0 0.0
2019-Jan-17 14:59N 51°27' E 003°42'0 0.0
2019-Jan-17 14:29N 51°27' E 003°42'0 0.0
2019-Jan-17 13:59N 51°27' E 003°42'0 0.0
2019-Jan-17 13:29N 51°27' E 003°42'0 0.0
2019-Jan-17 12:56N 51°27' E 003°42'0 0.0
2019-Jan-17 12:29N 51°27' E 003°42'0 0.0
2019-Jan-17 11:59N 51°27' E 003°42'0 0.0
2019-Jan-17 11:29N 51°27' E 003°42'0 0.0
2019-Jan-17 10:59N 51°27' E 003°42'0 0.0
2019-Jan-17 10:29N 51°27' E 003°42'0 0.0
2019-Jan-17 09:59N 51°27' E 003°42'0 0.0
2019-Jan-17 09:29N 51°27' E 003°42'0 0.0
2019-Jan-17 08:59N 51°27' E 003°42'0 0.0
2019-Jan-17 08:29N 51°27' E 003°42'0 0.0
2019-Jan-17 07:59N 51°27' E 003°42'0 0.0
2019-Jan-17 07:26N 51°27' E 003°42'0 0.0
2019-Jan-17 06:59N 51°27' E 003°42'0 0.0
2019-Jan-17 06:29N 51°27' E 003°42'0 0.0
2019-Jan-17 05:59N 51°27' E 003°42'0 0.0
2019-Jan-17 05:29N 51°27' E 003°42'0 0.0
2019-Jan-17 04:59N 51°27' E 003°42'0 0.0
2019-Jan-17 04:29N 51°27' E 003°42'0 0.0
2019-Jan-17 03:59N 51°27' E 003°42'0 0.0
2019-Jan-17 03:29N 51°27' E 003°42'0 0.0
2019-Jan-17 02:26N 51°27' E 003°42'0 0.0
2019-Jan-17 01:56N 51°27' E 003°42'0 0.0
2019-Jan-17 01:29N 51°27' E 003°42'0 0.0
2019-Jan-17 00:59N 51°27' E 003°42'0 0.0
2019-Jan-17 00:29N 51°27' E 003°42'0 0.0
2019-Jan-16 23:59N 51°27' E 003°42'0 0.0
2019-Jan-16 23:28N 51°27' E 003°42'0 0.0
2019-Jan-16 22:55N 51°27' E 003°42'0 0.0
2019-Jan-16 22:28N 51°27' E 003°42'0 0.0
2019-Jan-16 21:58N 51°27' E 003°42'0 0.0
2019-Jan-16 21:28N 51°27' E 003°42'0 0.0
2019-Jan-16 20:58N 51°27' E 003°42'0 0.0
2019-Jan-16 20:25N 51°27' E 003°42'0 0.0
2019-Jan-16 19:58N 51°27' E 003°42'0 0.0
2019-Jan-16 19:28N 51°27' E 003°42'0 0.0
2019-Jan-16 18:58N 51°27' E 003°42'0 0.0
2019-Jan-16 18:28N 51°27' E 003°42'0 0.0
2019-Jan-16 17:58N 51°27' E 003°42'0 0.0
2019-Jan-16 17:28N 51°27' E 003°42'0 0.0
2019-Jan-16 16:52N 51°27' E 003°42'0 0.0
2019-Jan-16 16:28N 51°27' E 003°42'0 0.0
2019-Jan-16 15:58N 51°27' E 003°42'0 0.0
2019-Jan-16 15:28N 51°27' E 003°42'0 0.0
2019-Jan-16 14:58N 51°27' E 003°42'0 0.0
2019-Jan-16 14:28N 51°27' E 003°42'0 0.0
2019-Jan-16 13:58N 51°27' E 003°42'0 0.0
2019-Jan-16 13:28N 51°27' E 003°42'0 0.0
2019-Jan-16 12:58N 51°27' E 003°42'0 0.0
2019-Jan-16 12:28N 51°27' E 003°42'0 0.0
2019-Jan-16 11:55N 51°27' E 003°42'0 0.0
2019-Jan-16 11:28N 51°27' E 003°42'0 0.0
2019-Jan-16 10:58N 51°27' E 003°42'0 0.0
2019-Jan-16 10:28N 51°27' E 003°42'0 0.0
2019-Jan-16 09:58N 51°27' E 003°42'0 0.0
2019-Jan-16 09:28N 51°27' E 003°42'0 0.0
2019-Jan-16 08:58N 51°27' E 003°42'0 0.0
2019-Jan-16 08:28N 51°27' E 003°42'0 0.0
2019-Jan-16 07:55N 51°27' E 003°42'0 0.0
2019-Jan-16 07:25N 51°27' E 003°42'0 0.0
2019-Jan-16 06:58N 51°27' E 003°42'0 0.0
2019-Jan-16 06:28N 51°27' E 003°42'0 0.0
2019-Jan-16 05:58N 51°27' E 003°42'0 0.0
2019-Jan-16 05:28N 51°27' E 003°42'0 0.0
2019-Jan-16 04:58N 51°27' E 003°42'0 0.0
2019-Jan-16 04:28N 51°27' E 003°42'0 0.0
2019-Jan-16 03:58N 51°27' E 003°42'0 0.0
2019-Jan-16 03:28N 51°27' E 003°42'0 0.0
2019-Jan-16 02:58N 51°27' E 003°42'0 0.0
2019-Jan-16 02:28N 51°27' E 003°42'0 0.0
2019-Jan-16 01:55N 51°27' E 003°42'0 0.0
2019-Jan-16 01:28N 51°27' E 003°42'0 0.0
2019-Jan-16 00:58N 51°27' E 003°42'0 0.0
2019-Jan-16 00:25N 51°27' E 003°42'0 0.0
2019-Jan-15 23:55N 51°27' E 003°42'0 0.0
2019-Jan-15 23:28N 51°27' E 003°42'0 0.0
2019-Jan-15 22:58N 51°27' E 003°42'0 0.0
2019-Jan-15 22:22N 51°27' E 003°42'0 0.0
2019-Jan-15 21:58N 51°27' E 003°42'0 0.0
2019-Jan-15 21:28N 51°27' E 003°42'0 0.0
2019-Jan-15 20:58N 51°27' E 003°42'0 0.0
2019-Jan-15 20:28N 51°27' E 003°42'0 0.0
2019-Jan-15 19:58N 51°27' E 003°42'0 0.0
2019-Jan-15 19:28N 51°27' E 003°42'0 0.0
2019-Jan-15 18:58N 51°27' E 003°42'0 0.0
2019-Jan-15 18:28N 51°27' E 003°42'0 0.0
2019-Jan-15 17:58N 51°27' E 003°42'0 0.0
2019-Jan-15 17:28N 51°27' E 003°42'0 0.0
2019-Jan-15 16:58N 51°27' E 003°42'0 0.0
2019-Jan-15 16:28N 51°27' E 003°42'0 0.0
2019-Jan-15 15:58N 51°27' E 003°42'0 0.0
2019-Jan-15 15:28N 51°27' E 003°42'0 0.0
2019-Jan-15 14:58N 51°27' E 003°42'0 0.0
2019-Jan-15 14:28N 51°27' E 003°42'0 0.0
2019-Jan-15 13:58N 51°27' E 003°42'0 0.0
2019-Jan-15 13:28N 51°27' E 003°42'0 0.0
2019-Jan-15 12:58N 51°27' E 003°42'0 0.0
2019-Jan-15 12:28N 51°27' E 003°42'0 0.0
2019-Jan-15 12:01N 51°27' E 003°42'0 0.0
2019-Jan-15 11:31N 51°27' E 003°42'0 0.0
2019-Jan-15 11:01N 51°27' E 003°42'0 0.0
2019-Jan-15 10:27N 51°27' E 003°42'0 0.8
2019-Jan-15 10:01N 51°27' E 003°42'1 2.8
2019-Jan-15 09:30N 51°27' E 003°40'5 9.6
2019-Jan-15 09:00N 51°25' E 003°33'510.5
2019-Jan-15 08:30N 51°25' E 003°25'611.5
2019-Jan-15 07:57N 51°25' E 003°14'1013.0
2019-Jan-15 07:11N 51°23' E 002°58'213.0
2019-Jan-15 07:00N 51°22' E 002°55'714.5
2019-Jan-15 06:30N 51°22' E 002°43'510.5
2019-Jan-15 06:00N 51°22' E 002°35'3 4.0
2019-Jan-15 05:12N 51°25' E 002°37'0 0.2
2019-Jan-15 05:00N 51°25' E 002°37'0 0.1
2019-Jan-15 02:45N 51°25' E 002°37'0 0.0
2019-Jan-14 23:18N 51°25' E 002°37'0 0.1
2019-Jan-14 21:27N 51°25' E 002°37'0 0.1
2019-Jan-14 21:00N 51°25' E 002°37'0 0.0
2019-Jan-14 20:15N 51°25' E 002°37'0 0.0
2019-Jan-14 19:39N 51°25' E 002°38'1 3.1
2019-Jan-14 19:13N 51°24' E 002°36'2 6.5
2019-Jan-14 18:58N 51°23' E 002°34'612.7
2019-Jan-14 18:30N 51°21' E 002°25'816.3
2019-Jan-14 18:00N 51°16' E 002°15'816.1
2019-Jan-14 17:30N 51°13' E 002°03'816.1
2019-Jan-14 17:00N 51°09' E 001°52'816.0
2019-Jan-14 16:30N 51°04' E 001°42'816.1
2019-Jan-14 16:00N 50°58' E 001°33'815.1
2019-Jan-14 15:30N 50°52' E 001°26'6814.5
2019-Jan-14 10:48N 50°18' W 000°06'4614.3
2019-Jan-14 07:36N 50°07' W 001°16'113.3
2019-Jan-14 07:30N 50°07' W 001°18'613.1
2019-Jan-14 07:01N 50°06' W 001°28'612.8
2019-Jan-14 06:30N 50°04' W 001°38'612.8
2019-Jan-14 06:00N 50°03' W 001°47'613.0
2019-Jan-14 05:31N 50°01' W 001°57'713.1
2019-Jan-14 05:00N 49°59' W 002°07'2014.2
2019-Jan-14 03:37N 49°54' W 002°36'414.7
2019-Jan-14 03:21N 49°53' W 002°42'514.5
2019-Jan-14 03:00N 49°51' W 002°50'1714.8
2019-Jan-14 01:53N 49°42' W 003°12'614.8
2019-Jan-14 01:30N 49°40' W 003°19'915.1
2019-Jan-14 00:55N 49°35' W 003°31'1415.0
2019-Jan-13 23:57N 49°28' W 003°50'9912.0
2019-Jan-13 15:42N 48°11' W 005°25'313.3
2019-Jan-13 15:30N 48°08' W 005°24'1613.2
2019-Jan-13 14:15N 47°54' W 005°12'413.3
2019-Jan-13 13:58N 47°52' W 005°07'613.4
2019-Jan-13 13:29N 47°49' W 004°58'713.4
2019-Jan-13 12:57N 47°47' W 004°48'613.8
2019-Jan-13 12:29N 47°44' W 004°40'2413.8
2019-Jan-13 10:44N 47°35' W 004°06'413.9
2019-Jan-13 10:29N 47°35' W 004°01'714.1
2019-Jan-13 10:00N 47°37' W 003°51'714.5
2019-Jan-13 09:30N 47°39' W 003°41'714.2
2019-Jan-13 09:00N 47°40' W 003°31'510.7
2019-Jan-13 08:30N 47°42' W 003°23'3 5.7
2019-Jan-13 08:00N 47°44' W 003°21'0 0.0
2019-Jan-13 07:30N 47°44' W 003°21'0 0.0
2019-Jan-13 07:00N 47°44' W 003°21'0 0.0
2019-Jan-13 06:30N 47°44' W 003°21'0 0.0
2019-Jan-13 06:00N 47°44' W 003°21'0 0.0
2019-Jan-13 05:30N 47°44' W 003°21'0 0.0
2019-Jan-13 05:00N 47°44' W 003°21'0 0.0
2019-Jan-13 04:30N 47°44' W 003°21'0 0.0
2019-Jan-13 04:00N 47°44' W 003°21'0 0.0
2019-Jan-13 03:30N 47°44' W 003°21'0 0.0
2019-Jan-13 03:00N 47°44' W 003°21'0 0.0
2019-Jan-13 02:30N 47°44' W 003°21'0 0.0
2019-Jan-13 02:00N 47°44' W 003°21'0 0.0
2019-Jan-13 01:30N 47°44' W 003°21'0 0.0
2019-Jan-13 01:00N 47°44' W 003°21'0 0.0
2019-Jan-13 00:30N 47°44' W 003°21'0 0.0
2019-Jan-13 00:00N 47°44' W 003°21'0 0.0
2019-Jan-12 23:30N 47°44' W 003°21'0 0.0
2019-Jan-12 23:00N 47°44' W 003°21'0 0.0
2019-Jan-12 22:30N 47°44' W 003°21'0 0.0
2019-Jan-12 22:00N 47°44' W 003°21'0 0.0
2019-Jan-12 21:30N 47°44' W 003°21'0 0.0
2019-Jan-12 21:00N 47°44' W 003°21'0 0.0
2019-Jan-12 20:30N 47°44' W 003°21'0 0.0
2019-Jan-12 20:00N 47°44' W 003°21'0 0.0
2019-Jan-12 19:30N 47°44' W 003°21'0 0.0
2019-Jan-12 19:00N 47°44' W 003°21'0 0.0
2019-Jan-12 18:30N 47°44' W 003°21'0 0.0
2019-Jan-12 18:00N 47°44' W 003°21'0 0.0
2019-Jan-12 17:30N 47°44' W 003°21'0 0.0
2019-Jan-12 17:00N 47°44' W 003°21'0 0.0
2019-Jan-12 16:30N 47°44' W 003°21'0 0.0
2019-Jan-12 16:00N 47°44' W 003°21'0 0.0
2019-Jan-12 15:30N 47°44' W 003°21'0 0.0
2019-Jan-12 15:00N 47°44' W 003°21'0 0.0
2019-Jan-12 14:30N 47°44' W 003°21'0 0.0
2019-Jan-12 14:00N 47°44' W 003°21'0 0.0
2019-Jan-12 13:30N 47°44' W 003°21'0 0.0
2019-Jan-12 13:00N 47°44' W 003°21'0 0.0
2019-Jan-12 12:30N 47°44' W 003°21'0 0.0
2019-Jan-12 12:00N 47°44' W 003°21'0 0.0
2019-Jan-12 11:30N 47°44' W 003°21'0 0.0
2019-Jan-12 11:00N 47°44' W 003°21'0 0.0
2019-Jan-12 10:30N 47°44' W 003°21'0 0.0
2019-Jan-12 10:00N 47°44' W 003°21'0 0.0
2019-Jan-12 09:30N 47°44' W 003°21'0 0.0
2019-Jan-12 09:00N 47°44' W 003°21'0 0.0
2019-Jan-12 08:30N 47°44' W 003°21'0 0.0
2019-Jan-12 08:00N 47°44' W 003°21'0 0.0
2019-Jan-12 07:30N 47°44' W 003°21'0 0.0
2019-Jan-12 07:00N 47°44' W 003°21'0 0.0
2019-Jan-12 06:30N 47°44' W 003°21'0 0.1
2019-Jan-12 06:00N 47°44' W 003°21'1 1.7
2019-Jan-12 05:30N 47°43' W 003°22'  

Dump ship's entire track history